This is the latest recevied weather packets stored in our database for station/object EA4BCR. If no packets are shown the sender has not sent any weather packets the latest 10 day(s).
| Time | Temp. | Humidity | Pressure | Rain* | Wind** | Luminosity | Snow |
|---|---|---|---|---|---|---|---|
| 1778025654 | 9.44° C | 75% | 1014.2 hPa | - | - | - | - |
| 1778025054 | 10° C | 70% | 1014 hPa | - | - | - | - |
| 1778024454 | 10.56° C | 66% | 1013.7 hPa | - | - | - | - |
| 1778023854 | 11.11° C | 67% | 1013.5 hPa | - | - | - | - |
| 1778023254 | 11.11° C | 67% | 1013.5 hPa | - | - | - | - |
| 1778022654 | 11.11° C | 65% | 1013.5 hPa | - | - | - | - |
| 1778022054 | 11.11° C | 65% | 1013.2 hPa | - | - | - | - |
| 1778021454 | 11.11° C | 65% | 1013.3 hPa | - | - | - | - |
| 1778020854 | 11.11° C | 63% | 1013.3 hPa | - | - | - | - |
| 1778020254 | 11.67° C | 62% | 1013 hPa | - | - | - | - |
| 1778019654 | 12.78° C | 58% | 1012.7 hPa | - | - | - | - |
| 1778019054 | 12.78° C | 58% | 1012.8 hPa | - | - | - | - |
| 1778018454 | 12.78° C | 56% | 1012.8 hPa | - | - | - | - |
| 1778017854 | 12.78° C | 55% | 1012.6 hPa | - | - | - | - |
| 1778017254 | 13.33° C | 54% | 1012.4 hPa | - | - | - | - |
| 1778016654 | 13.33° C | 53% | 1012.5 hPa | - | - | - | - |
| 1778016054 | 13.89° C | 52% | 1012.4 hPa | - | - | - | - |
| 1778015454 | 13.89° C | 52% | 1012.3 hPa | - | - | - | - |
| 1778014854 | 13.89° C | 51% | 1012.4 hPa | - | - | - | - |
| 1778014254 | 13.33° C | 52% | 1012.6 hPa | - | - | - | - |
| 1778013654 | 13.33° C | 51% | 1012.3 hPa | - | - | - | - |
| 1778013054 | 13.33° C | 50% | 1012.3 hPa | - | - | - | - |
| 1778012454 | 13.89° C | 47% | 1011.9 hPa | - | - | - | - |
| 1778011854 | 15° C | 46% | 1011.5 hPa | - | - | - | - |
| 1778011254 | 15° C | 44% | 1011.4 hPa | - | - | - | - |
* Rain since midnight (hover to see other rain measurements)
** Current wind speed in m/s (hover to see current wind gust speed)